Terminal Aerodrome Forecast
Issued by NWS Twin Cities, MN

Home | Current Version | Previous Version | Text Only | Print | Product List | Glossary On
Versions: 1 2 3 4 5 6 7 8 9 10 11 12 13 14 15 16 17 18
393
FTUS43 KMPX 210844 AAA
TAFSTC
TAF AMD
KSTC 210844Z 2109/2206 10004KT 1/4SM -DZ FG VV002
     FM211400 08005KT 1SM -RA BR OVC003
     FM211900 09004KT 2SM -DZ BR OVC004
     FM220200 04003KT 1/2SM FG VV002=

USA.gov is the U.S. government's official web portal to all federal, state and local government web resources and services.